Lila — V7HA8 — position and weather

sailwx.info

Track history (hours):
 
Tides and Currents Weather Stations Pressure Air Temp Water Temp Dewpoint Dewpoint Depression Visibility Wind Speed Wind Dir Waves Ship Positions

Lila

Last reported at 2018-Apr-22 02:45 UTC. Time now 2018-Apr-26 00:17 UTC.
Position N 37°56' W 010°01'.

Length 115 m; draft 8.4 m.

Type: Cargo ship. MMSI: 538005792.

Date/timePositionNaut miles runAvg speedWind from/ knotsBaromVisibWave heightAir tempDewpointWater temp
2018-Apr-22 02:45N 37°56' W 010°01'312.3
2018-Apr-22 02:30N 37°59' W 010°01'612.4
2018-Apr-22 02:00N 38°05' W 010°01'612.3
2018-Apr-22 01:30N 38°12' W 010°02'612.3
2018-Apr-22 01:00N 38°18' W 010°03'612.3
2018-Apr-22 00:30N 38°24' W 010°03'612.2
2018-Apr-22 00:00N 38°30' W 010°04'612.2
2018-Apr-21 23:30N 38°36' W 010°05'612.2
2018-Apr-21 23:00N 38°42' W 010°07'612.0
2018-Apr-21 22:30N 38°48' W 010°06'612.0
2018-Apr-21 22:00N 38°54' W 010°07'611.8
2018-Apr-21 21:30N 38°60' W 010°07'611.8
2018-Apr-21 21:00N 39°06' W 010°06'611.6
2018-Apr-21 20:30N 39°12' W 010°06'611.6
2018-Apr-21 20:00N 39°17' W 010°07'612.0
2018-Apr-21 19:30N 39°23' W 010°07'611.5
2018-Apr-21 19:00N 39°29' W 010°07'  
2018-Apr-19 05:58N 49°33' W 004°07'4 8.3
2018-Apr-19 05:30N 49°35' W 004°02'4 8.7
2018-Apr-19 05:00N 49°37' W 003°56'5 9.5
2018-Apr-19 04:30N 49°39' W 003°50'510.3
2018-Apr-19 04:00N 49°42' W 003°43'711.3
2018-Apr-19 03:25N 49°45' W 003°35'511.8
2018-Apr-19 03:00N 49°48' W 003°28'612.3
2018-Apr-19 02:30N 49°51' W 003°20'612.5
2018-Apr-19 02:00N 49°54' W 003°11'612.1
2018-Apr-19 01:30N 49°57' W 003°03'611.7
2018-Apr-19 01:00N 49°59' W 002°55'511.0
2018-Apr-19 00:30N 50°01' W 002°47'510.2
2018-Apr-19 00:00N 50°02' W 002°39'5 9.4
2018-Apr-18 23:30N 50°03' W 002°32'9 8.0
2018-Apr-18 22:24N 50°05' W 002°18'3 6.5
2018-Apr-18 22:00N 50°06' W 002°14'4 6.3
2018-Apr-18 21:24N 50°07' W 002°09'2 6.2
2018-Apr-18 21:00N 50°07' W 002°05'3 6.3
2018-Apr-18 20:30N 50°08' W 002°00'3 6.9
2018-Apr-18 20:00N 50°09' W 001°55'4 7.6
2018-Apr-18 19:30N 50°10' W 001°49'5 9.1
2018-Apr-18 19:00N 50°11' W 001°42'510.5
2018-Apr-18 18:30N 50°12' W 001°34'611.9
2018-Apr-18 18:00N 50°13' W 001°25'713.1
2018-Apr-18 17:30N 50°15' W 001°15'714.2
2018-Apr-18 17:00N 50°17' W 001°05'714.7
2018-Apr-18 16:30N 50°19' W 000°54'714.5
2018-Apr-18 16:01N 50°21' W 000°43'714.3
2018-Apr-18 15:30N 50°23' W 000°32'713.9
2018-Apr-18 15:00N 50°26' W 000°22'713.1
2018-Apr-18 14:31N 50°28' W 000°12'612.4
2018-Apr-18 14:00N 50°30' W 000°03'611.8
2018-Apr-18 13:30N 50°32' E 000°06'611.1
2018-Apr-18 13:00N 50°33' E 000°14'510.4
2018-Apr-18 12:31N 50°34' E 000°22'5 9.9
2018-Apr-18 12:01N 50°36' E 000°30'5 9.5
2018-Apr-18 11:31N 50°38' E 000°37'5 9.5
2018-Apr-18 11:01N 50°40' E 000°43'5 9.9
2018-Apr-18 10:30N 50°43' E 000°49'510.4
2018-Apr-18 10:01N 50°46' E 000°56'611.3
2018-Apr-18 09:31N 50°50' E 001°02'812.4
2018-Apr-18 08:53N 50°55' E 001°11'613.5
2018-Apr-18 08:28N 50°60' E 001°17'614.2
2018-Apr-18 08:01N 51°03' E 001°26'714.0
2018-Apr-18 07:31N 51°08' E 001°34'713.0
2018-Apr-18 07:01N 51°12' E 001°42'612.1
2018-Apr-18 06:30N 51°17' E 001°48'611.1
2018-Apr-18 06:01N 51°21' E 001°53'510.1
2018-Apr-18 05:31N 51°25' E 001°59'510.8
2018-Apr-18 05:01N 51°23' E 002°07'611.2
2018-Apr-18 04:30N 51°21' E 002°16'5 9.4
2018-Apr-18 04:01N 51°21' E 002°23'5 9.6
2018-Apr-18 03:30N 51°23' E 002°31'5 9.6
2018-Apr-18 02:59N 51°23' E 002°39'4 8.6
2018-Apr-18 02:30N 51°22' E 002°45'4 8.8
2018-Apr-18 02:01N 51°23' E 002°52'4 8.9
2018-Apr-18 01:30N 51°23' E 002°59'4 8.2
2018-Apr-18 01:01N 51°24' E 003°05'4 8.1
2018-Apr-18 00:31N 51°24' E 003°12'4 8.5
2018-Apr-18 00:01N 51°25' E 003°19'5 9.1
2018-Apr-17 23:31N 51°25' E 003°26'5 9.2
2018-Apr-17 23:00N 51°26' E 003°34'5 9.3
2018-Apr-17 22:30N 51°26' E 003°41'4 8.8
2018-Apr-17 22:01N 51°24' E 003°46'0 0.4
2018-Apr-17 21:29N 51°23' E 003°46'0 0.1
2018-Apr-17 20:59N 51°23' E 003°46'0 0.0
2018-Apr-17 20:29N 51°23' E 003°46'0 0.0
2018-Apr-17 19:59N 51°23' E 003°46'0 0.0
2018-Apr-17 19:29N 51°23' E 003°46'0 0.0
2018-Apr-17 18:59N 51°23' E 003°46'0 0.0
2018-Apr-17 18:29N 51°23' E 003°46'0 0.0
2018-Apr-17 17:59N 51°23' E 003°46'0 0.0
2018-Apr-17 17:29N 51°23' E 003°46'0 0.0
2018-Apr-17 16:59N 51°23' E 003°46'0 0.1
2018-Apr-17 16:26N 51°23' E 003°46'1 1.3
2018-Apr-17 16:00N 51°24' E 003°46'3 5.5
2018-Apr-17 15:30N 51°25' E 003°42'4 8.3
2018-Apr-17 15:00N 51°26' E 003°35'5 9.8
2018-Apr-17 14:30N 51°25' E 003°28'510.4
2018-Apr-17 14:00N 51°24' E 003°19'510.3
2018-Apr-17 13:30N 51°24' E 003°11'510.8
2018-Apr-17 13:00N 51°24' E 003°02'611.2
2018-Apr-17 12:30N 51°22' E 002°54'611.2
2018-Apr-17 12:00N 51°21' E 002°45'4 7.7
2018-Apr-17 11:30N 51°21' E 002°39'3 4.9
2018-Apr-17 10:57N 51°20' E 002°35'0 0.1
2018-Apr-17 10:30N 51°20' E 002°35'0 0.1
2018-Apr-17 10:00N 51°20' E 002°35'0 0.0
2018-Apr-17 09:30N 51°20' E 002°35'0 0.0
2018-Apr-17 08:57N 51°20' E 002°35'0 0.0
2018-Apr-17 08:30N 51°20' E 002°35'0 0.0
2018-Apr-17 08:00N 51°20' E 002°35'0 0.0
2018-Apr-17 07:30N 51°20' E 002°35'0 0.0
2018-Apr-17 06:57N 51°20' E 002°35'0 0.1
2018-Apr-17 06:30N 51°20' E 002°35'0 0.1
2018-Apr-17 06:00N 51°20' E 002°35'0 0.2
2018-Apr-17 05:28N 51°20' E 002°35'2 3.3
2018-Apr-17 05:00N 51°21' E 002°34'4 7.6
2018-Apr-17 04:31N 51°21' E 002°27'4 7.5
2018-Apr-17 04:01N 51°19' E 002°22'3 6.1
2018-Apr-17 03:30N 51°18' E 002°18'3 6.3
2018-Apr-17 03:00N 51°16' E 002°14'3 6.5
2018-Apr-17 02:31N 51°15' E 002°09'3 6.9
2018-Apr-17 02:00N 51°13' E 002°04'4 7.1
2018-Apr-17 01:30N 51°11' E 001°59'4 7.4
2018-Apr-17 01:01N 51°09' E 001°54'4 7.7
2018-Apr-17 00:30N 51°07' E 001°49'5 9.5
2018-Apr-17 00:01N 51°03' E 001°45'3 6.7
2018-Apr-16 23:30N 51°02' E 001°50'3 6.6
2018-Apr-16 23:01N 51°02' E 001°55'5 9.5
2018-Apr-16 22:30N 51°03' E 002°03'510.2
2018-Apr-16 22:01N 51°03' E 002°10'611.0
2018-Apr-16 21:29N 51°04' E 002°20'1 1.5
2018-Apr-16 20:57N 51°03' E 002°20'0 0.0
2018-Apr-16 20:30N 51°03' E 002°20'2 3.4
2018-Apr-16 20:01N 51°03' E 002°18'1 1.7
2018-Apr-16 19:31N 51°03' E 002°17'0 0.0
2018-Apr-16 19:00N 51°03' E 002°17'0 0.0
2018-Apr-16 18:30N 51°03' E 002°17'0 0.0
2018-Apr-16 17:39N 51°03' E 002°17'0 0.0
2018-Apr-16 17:27N 51°03' E 002°17'0 0.0
2018-Apr-16 17:00N 51°03' E 002°17'0 0.0
2018-Apr-16 16:27N 51°03' E 002°17'0 0.0
2018-Apr-16 16:00N 51°03' E 002°17'0 0.0
2018-Apr-16 15:30N 51°03' E 002°17'0 0.0
2018-Apr-16 15:00N 51°03' E 002°17'0 0.0
2018-Apr-16 14:30N 51°03' E 002°17'0 0.0
2018-Apr-16 14:00N 51°03' E 002°17'0 0.0
2018-Apr-16 13:27N 51°03' E 002°17'0 0.0
2018-Apr-16 13:00N 51°03' E 002°17'0 0.0
2018-Apr-16 12:30N 51°03' E 002°17'0 0.0
2018-Apr-16 11:54N 51°03' E 002°17'0 0.0
2018-Apr-16 11:24N 51°03' E 002°17'0 0.0
2018-Apr-16 10:48N 51°03' E 002°17'0 0.0
2018-Apr-16 10:18N 51°03' E 002°17'0 0.0
2018-Apr-16 09:57N 51°03' E 002°17'0 0.0
2018-Apr-16 09:21N 51°03' E 002°17'0 0.0
2018-Apr-16 09:00N 51°03' E 002°17'0 0.0
2018-Apr-16 08:30N 51°03' E 002°17'0 0.0
2018-Apr-16 08:00N 51°03' E 002°17'0 0.0
2018-Apr-16 07:18N 51°03' E 002°17'0 0.0
2018-Apr-16 06:51N 51°03' E 002°17'0 0.0
2018-Apr-16 06:18N 51°03' E 002°17'0 0.0
2018-Apr-16 06:00N 51°03' E 002°17'0 0.0
2018-Apr-16 05:24N 51°03' E 002°17'0 0.0
2018-Apr-16 05:00N 51°03' E 002°17'0 0.0
2018-Apr-16 04:27N 51°03' E 002°17'0 0.0
2018-Apr-16 04:00N 51°03' E 002°17'0 0.0
2018-Apr-16 02:00N 51°03' E 002°17'0 0.0
2018-Apr-16 01:12N 51°03' E 002°17'0 0.0
2018-Apr-16 00:45N 51°03' E 002°17'0 0.0
2018-Apr-16 00:24N 51°03' E 002°17'0 0.0
2018-Apr-16 00:00N 51°03' E 002°17'0 0.0
2018-Apr-15 22:42N 51°03' E 002°17'0 0.0
2018-Apr-15 22:21N 51°03' E 002°17'0 0.0
2018-Apr-15 22:00N 51°03' E 002°17'0 0.0
2018-Apr-15 21:15N 51°03' E 002°17'0 0.0
2018-Apr-15 20:54N 51°03' E 002°17'0 0.0
2018-Apr-15 20:15N 51°03' E 002°17'0 0.0
2018-Apr-15 19:54N 51°03' E 002°17'0 0.0
2018-Apr-15 19:30N 51°03' E 002°17'0 0.0
2018-Apr-15 18:54N 51°03' E 002°17'0 0.0
2018-Apr-15 18:27N 51°03' E 002°17'0 0.0
2018-Apr-15 17:21N 51°03' E 002°17'0 0.0
2018-Apr-15 17:00N 51°03' E 002°17'0 0.0
2018-Apr-15 16:27N 51°03' E 002°17'0 0.0
2018-Apr-15 16:00N 51°03' E 002°17'0 0.0
2018-Apr-15 15:30N 51°03' E 002°17'0 0.0
2018-Apr-15 15:00N 51°03' E 002°17'0 0.0
2018-Apr-15 13:42N 51°03' E 002°17'0 0.0
2018-Apr-15 13:30N 51°03' E 002°17'0 0.0
2018-Apr-15 13:00N 51°03' E 002°17'0 0.0
2018-Apr-15 11:36N 51°03' E 002°17'0 0.0
2018-Apr-15 11:18N 51°03' E 002°17'0 0.0
2018-Apr-15 11:00N 51°03' E 002°17'0 0.0
2018-Apr-15 10:30N 51°03' E 002°17'0 0.0
2018-Apr-15 09:57N 51°03' E 002°17'0 0.0
2018-Apr-15 09:18N 51°03' E 002°17'0 0.0
2018-Apr-15 09:00N 51°03' E 002°17'0 0.0
2018-Apr-15 08:24N 51°03' E 002°17'0 0.0
2018-Apr-15 07:48N 51°03' E 002°17'0 0.0
2018-Apr-15 07:30N 51°03' E 002°17'0 0.0
2018-Apr-15 06:36N 51°03' E 002°17'0 0.0
2018-Apr-15 06:18N 51°03' E 002°17'0 0.0
2018-Apr-15 05:57N 51°03' E 002°17'0 0.0
2018-Apr-15 05:30N 51°03' E 002°17'0 0.0
2018-Apr-15 05:00N 51°03' E 002°17'0 0.0
2018-Apr-15 04:24N 51°03' E 002°17'0 0.0
2018-Apr-15 03:57N 51°03' E 002°17'0 0.0
2018-Apr-15 01:18N 51°03' E 002°17'0 0.0
2018-Apr-15 00:15N 51°03' E 002°17'0 0.0
2018-Apr-14 23:48N 51°03' E 002°17'0 0.0
2018-Apr-14 23:30N 51°03' E 002°17'0 0.0
2018-Apr-14 21:00N 51°03' E 002°17'0 0.0
2018-Apr-14 19:42N 51°03' E 002°17'0 0.0
2018-Apr-14 19:30N 51°03' E 002°17'0 0.0
2018-Apr-14 18:54N 51°03' E 002°17'0 0.0
2018-Apr-14 18:30N 51°03' E 002°17'0 0.0
2018-Apr-14 17:51N 51°03' E 002°17'0 0.0
2018-Apr-14 17:30N 51°03' E 002°17'0 0.0
2018-Apr-14 17:00N 51°03' E 002°17'0 0.0
2018-Apr-14 16:24N 51°03' E 002°17'0 0.0
2018-Apr-14 16:00N 51°03' E 002°17'0 0.0
2018-Apr-14 15:24N 51°03' E 002°17'0 0.0
2018-Apr-14 14:54N 51°03' E 002°17'0 0.0
2018-Apr-14 14:24N 51°03' E 002°17'0 0.0
2018-Apr-14 13:06N 51°03' E 002°17'0 0.0
2018-Apr-14 12:45N 51°03' E 002°17'0 0.0
2018-Apr-14 12:12N 51°03' E 002°17'0 0.0
2018-Apr-14 11:39N 51°03' E 002°17'0 0.0
2018-Apr-14 11:21N 51°03' E 002°17'0 0.0
2018-Apr-14 11:00N 51°03' E 002°17'0 0.0
2018-Apr-14 10:30N 51°03' E 002°17'0 0.0
2018-Apr-14 09:57N 51°03' E 002°17'0 0.0
2018-Apr-14 09:27N 51°03' E 002°17'0 0.0
2018-Apr-14 08:24N 51°03' E 002°17'0 0.0
2018-Apr-14 07:51N 51°03' E 002°17'0 0.0
2018-Apr-14 07:30N 51°03' E 002°17'0 0.0
2018-Apr-14 07:00N 51°03' E 002°17'0 0.0
2018-Apr-14 06:24N 51°03' E 002°17'0 0.0
2018-Apr-14 06:00N 51°03' E 002°17'0 0.0
2018-Apr-14 05:30N 51°03' E 002°17'0 0.0
2018-Apr-14 04:57N 51°03' E 002°17'0 0.0
2018-Apr-14 04:30N 51°03' E 002°17'0 0.0
2018-Apr-14 04:00N 51°03' E 002°17'0 0.0
2018-Apr-14 03:30N 51°03' E 002°17'0 0.0
2018-Apr-14 03:00N 51°03' E 002°17'0 0.0
2018-Apr-14 02:30N 51°03' E 002°17'0 0.0
2018-Apr-13 23:36N 51°03' E 002°17'0 0.0
2018-Apr-13 23:30N 51°03' E 002°17'0 0.0
2018-Apr-13 23:00N 51°03' E 002°17'0 0.0
2018-Apr-13 21:57N 51°03' E 002°17'0 0.0
2018-Apr-13 21:30N 51°03' E 002°17'0 0.0
2018-Apr-13 21:00N 51°03' E 002°17'0 0.0
2018-Apr-13 20:24N 51°03' E 002°17'0 0.0
2018-Apr-13 19:57N 51°03' E 002°17'0 0.0
2018-Apr-13 19:30N 51°03' E 002°17'0 0.0
2018-Apr-13 19:00N 51°03' E 002°17'0 0.0
2018-Apr-13 18:30N 51°03' E 002°17'0 0.6
2018-Apr-13 18:00N 51°03' E 002°16'2 3.6
2018-Apr-13 17:29N 51°03' E 002°19'1 2.2
2018-Apr-13 17:00N 51°03' E 002°20'1 1.5
2018-Apr-13 16:30N 51°04' E 002°20'510.3
2018-Apr-13 16:00N 51°03' E 002°12'510.6
2018-Apr-13 15:30N 51°03' E 002°04'510.9
2018-Apr-13 15:00N 51°02' E 001°55'3 6.6
2018-Apr-13 14:30N 51°03' E 001°50'2 3.4
2018-Apr-13 14:01N 51°05' E 001°51'0 0.0
2018-Apr-13 12:58N 51°05' E 001°51'0 0.0
2018-Apr-13 12:31N 51°05' E 001°51'0 0.0
2018-Apr-13 11:58N 51°05' E 001°51'0 0.0
2018-Apr-13 11:31N 51°05' E 001°51'0 0.0
2018-Apr-13 10:58N 51°05' E 001°51'0 0.0
2018-Apr-13 10:27N 51°05' E 001°51'0 0.0
2018-Apr-13 09:58N 51°05' E 001°51'1 1.3
2018-Apr-13 09:30N 51°04' E 001°51'3 6.8
2018-Apr-13 09:00N 51°03' E 001°46'3 5.2
2018-Apr-13 08:30N 51°04' E 001°42'2 4.9
2018-Apr-13 08:00N 51°06' E 001°40'2 4.6
2018-Apr-13 07:30N 51°08' E 001°39'3 6.5
2018-Apr-13 07:00N 51°11' E 001°42'4 7.6
2018-Apr-13 06:30N 51°14' E 001°46'5 9.1
2018-Apr-13 06:00N 51°18' E 001°50'713.7
2018-Apr-13 05:30N 51°24' E 001°56'713.2
2018-Apr-13 05:00N 51°29' E 002°02'612.7
2018-Apr-13 04:30N 51°34' E 002°09'612.6
2018-Apr-13 04:00N 51°38' E 002°16'612.2
2018-Apr-13 03:30N 51°43' E 002°22'4010.6
2018-Apr-12 23:42N 52°03' E 003°19'311.5
2018-Apr-12 23:26N 52°03' E 003°24'611.5
2018-Apr-12 22:57N 52°03' E 003°33'511.9
2018-Apr-12 22:30N 52°04' E 003°42'4 7.3
2018-Apr-12 22:00N 52°08' E 003°41'0 0.1
2018-Apr-12 21:15N 52°08' E 003°41'0 0.1
2018-Apr-12 21:00N 52°08' E 003°41'0 0.0
2018-Apr-12 20:30N 52°08' E 003°41'0 0.0
2018-Apr-12 19:57N 52°08' E 003°41'0 0.0
2018-Apr-12 19:27N 52°08' E 003°41'0 0.0
2018-Apr-12 18:54N 52°08' E 003°41'0 0.0
2018-Apr-12 18:30N 52°08' E 003°41'0 0.0
2018-Apr-12 18:00N 52°08' E 003°41'0 0.0
2018-Apr-12 17:30N 52°08' E 003°41'0 0.0
2018-Apr-12 17:00N 52°08' E 003°41'0 0.0
2018-Apr-12 16:30N 52°08' E 003°41'0 0.0
2018-Apr-12 15:57N 52°08' E 003°41'0 0.0
2018-Apr-12 15:30N 52°08' E 003°41'0 0.1
2018-Apr-12 15:00N 52°08' E 003°41'0 0.2
2018-Apr-12 14:21N 52°08' E 003°42'0 0.1
2018-Apr-12 13:57N 52°08' E 003°42'0 0.0
2018-Apr-12 13:27N 52°08' E 003°42'0 0.1
2018-Apr-12 12:54N 52°08' E 003°42'0 0.0
2018-Apr-12 12:30N 52°08' E 003°42'0 0.0
2018-Apr-12 11:51N 52°08' E 003°42'0 0.0
2018-Apr-12 11:24N 52°08' E 003°42'0 0.1
2018-Apr-12 11:00N 52°08' E 003°41'0 0.1
2018-Apr-12 10:27N 52°08' E 003°41'0 0.1
2018-Apr-12 09:45N 52°08' E 003°41'0 0.0
2018-Apr-12 09:21N 52°08' E 003°41'0 0.0
2018-Apr-12 08:51N 52°08' E 003°41'0 0.0
2018-Apr-12 08:27N 52°08' E 003°41'0 0.0
2018-Apr-12 07:57N 52°08' E 003°41'0 0.0
2018-Apr-12 07:27N 52°08' E 003°41'0 0.0
2018-Apr-12 07:00N 52°08' E 003°41'0 0.0
2018-Apr-12 06:30N 52°08' E 003°41'0 0.0
2018-Apr-12 06:00N 52°08' E 003°41'0 0.0
2018-Apr-12 05:15N 52°08' E 003°41'0 0.1
2018-Apr-12 04:54N 52°08' E 003°41'0 0.6
2018-Apr-12 04:30N 52°08' E 003°42'4 8.8
2018-Apr-12 04:00N 52°05' E 003°48'5 9.2
2018-Apr-12 03:30N 52°03' E 003°54'4 8.4
2018-Apr-12 03:00N 52°01' E 004°00'  
Track history (hours):
 
Tides and Currents Weather Stations Pressure Air Temp Water Temp Dewpoint Dewpoint Depression Visibility Wind Speed Wind Dir Waves Ship Positions

Lila

Last reported at 2018-Apr-22 02:45 UTC. Time now 2018-Apr-26 00:17 UTC.
Position N 37°56' W 010°01'.

Length 115 m; draft 8.4 m.

Type: Cargo ship. MMSI: 538005792.

Date/timePositionNaut miles runAvg speedWind from/ knotsBaromVisibWave heightAir tempDewpointWater temp
2018-Apr-22 02:45N 37°56' W 010°01'312.3
2018-Apr-22 02:30N 37°59' W 010°01'612.4
2018-Apr-22 02:00N 38°05' W 010°01'612.3
2018-Apr-22 01:30N 38°12' W 010°02'612.3
2018-Apr-22 01:00N 38°18' W 010°03'612.3
2018-Apr-22 00:30N 38°24' W 010°03'612.2
2018-Apr-22 00:00N 38°30' W 010°04'612.2
2018-Apr-21 23:30N 38°36' W 010°05'612.2
2018-Apr-21 23:00N 38°42' W 010°07'612.0
2018-Apr-21 22:30N 38°48' W 010°06'612.0
2018-Apr-21 22:00N 38°54' W 010°07'611.8
2018-Apr-21 21:30N 38°60' W 010°07'611.8
2018-Apr-21 21:00N 39°06' W 010°06'611.6
2018-Apr-21 20:30N 39°12' W 010°06'611.6
2018-Apr-21 20:00N 39°17' W 010°07'612.0
2018-Apr-21 19:30N 39°23' W 010°07'611.5
2018-Apr-21 19:00N 39°29' W 010°07'  
2018-Apr-19 05:58N 49°33' W 004°07'4 8.3
2018-Apr-19 05:30N 49°35' W 004°02'4 8.7
2018-Apr-19 05:00N 49°37' W 003°56'5 9.5
2018-Apr-19 04:30N 49°39' W 003°50'510.3
2018-Apr-19 04:00N 49°42' W 003°43'711.3
2018-Apr-19 03:25N 49°45' W 003°35'511.8
2018-Apr-19 03:00N 49°48' W 003°28'612.3
2018-Apr-19 02:30N 49°51' W 003°20'612.5
2018-Apr-19 02:00N 49°54' W 003°11'612.1
2018-Apr-19 01:30N 49°57' W 003°03'611.7
2018-Apr-19 01:00N 49°59' W 002°55'511.0
2018-Apr-19 00:30N 50°01' W 002°47'510.2
2018-Apr-19 00:00N 50°02' W 002°39'5 9.4
2018-Apr-18 23:30N 50°03' W 002°32'9 8.0
2018-Apr-18 22:24N 50°05' W 002°18'3 6.5
2018-Apr-18 22:00N 50°06' W 002°14'4 6.3
2018-Apr-18 21:24N 50°07' W 002°09'2 6.2
2018-Apr-18 21:00N 50°07' W 002°05'3 6.3
2018-Apr-18 20:30N 50°08' W 002°00'3 6.9
2018-Apr-18 20:00N 50°09' W 001°55'4 7.6
2018-Apr-18 19:30N 50°10' W 001°49'5 9.1
2018-Apr-18 19:00N 50°11' W 001°42'510.5
2018-Apr-18 18:30N 50°12' W 001°34'611.9
2018-Apr-18 18:00N 50°13' W 001°25'713.1
2018-Apr-18 17:30N 50°15' W 001°15'714.2
2018-Apr-18 17:00N 50°17' W 001°05'714.7
2018-Apr-18 16:30N 50°19' W 000°54'714.5
2018-Apr-18 16:01N 50°21' W 000°43'714.3
2018-Apr-18 15:30N 50°23' W 000°32'713.9
2018-Apr-18 15:00N 50°26' W 000°22'713.1
2018-Apr-18 14:31N 50°28' W 000°12'612.4
2018-Apr-18 14:00N 50°30' W 000°03'611.8
2018-Apr-18 13:30N 50°32' E 000°06'611.1
2018-Apr-18 13:00N 50°33' E 000°14'510.4
2018-Apr-18 12:31N 50°34' E 000°22'5 9.9
2018-Apr-18 12:01N 50°36' E 000°30'5 9.5
2018-Apr-18 11:31N 50°38' E 000°37'5 9.5
2018-Apr-18 11:01N 50°40' E 000°43'5 9.9
2018-Apr-18 10:30N 50°43' E 000°49'510.4
2018-Apr-18 10:01N 50°46' E 000°56'611.3
2018-Apr-18 09:31N 50°50' E 001°02'812.4
2018-Apr-18 08:53N 50°55' E 001°11'613.5
2018-Apr-18 08:28N 50°60' E 001°17'614.2
2018-Apr-18 08:01N 51°03' E 001°26'714.0
2018-Apr-18 07:31N 51°08' E 001°34'713.0
2018-Apr-18 07:01N 51°12' E 001°42'612.1
2018-Apr-18 06:30N 51°17' E 001°48'611.1
2018-Apr-18 06:01N 51°21' E 001°53'510.1
2018-Apr-18 05:31N 51°25' E 001°59'510.8
2018-Apr-18 05:01N 51°23' E 002°07'611.2
2018-Apr-18 04:30N 51°21' E 002°16'5 9.4
2018-Apr-18 04:01N 51°21' E 002°23'5 9.6
2018-Apr-18 03:30N 51°23' E 002°31'5 9.6
2018-Apr-18 02:59N 51°23' E 002°39'4 8.6
2018-Apr-18 02:30N 51°22' E 002°45'4 8.8
2018-Apr-18 02:01N 51°23' E 002°52'4 8.9
2018-Apr-18 01:30N 51°23' E 002°59'4 8.2
2018-Apr-18 01:01N 51°24' E 003°05'4 8.1
2018-Apr-18 00:31N 51°24' E 003°12'4 8.5
2018-Apr-18 00:01N 51°25' E 003°19'5 9.1
2018-Apr-17 23:31N 51°25' E 003°26'5 9.2
2018-Apr-17 23:00N 51°26' E 003°34'5 9.3
2018-Apr-17 22:30N 51°26' E 003°41'4 8.8
2018-Apr-17 22:01N 51°24' E 003°46'0 0.4
2018-Apr-17 21:29N 51°23' E 003°46'0 0.1
2018-Apr-17 20:59N 51°23' E 003°46'0 0.0
2018-Apr-17 20:29N 51°23' E 003°46'0 0.0
2018-Apr-17 19:59N 51°23' E 003°46'0 0.0
2018-Apr-17 19:29N 51°23' E 003°46'0 0.0
2018-Apr-17 18:59N 51°23' E 003°46'0 0.0
2018-Apr-17 18:29N 51°23' E 003°46'0 0.0
2018-Apr-17 17:59N 51°23' E 003°46'0 0.0
2018-Apr-17 17:29N 51°23' E 003°46'0 0.0
2018-Apr-17 16:59N 51°23' E 003°46'0 0.1
2018-Apr-17 16:26N 51°23' E 003°46'1 1.3
2018-Apr-17 16:00N 51°24' E 003°46'3 5.5
2018-Apr-17 15:30N 51°25' E 003°42'4 8.3
2018-Apr-17 15:00N 51°26' E 003°35'5 9.8
2018-Apr-17 14:30N 51°25' E 003°28'510.4
2018-Apr-17 14:00N 51°24' E 003°19'510.3
2018-Apr-17 13:30N 51°24' E 003°11'510.8
2018-Apr-17 13:00N 51°24' E 003°02'611.2
2018-Apr-17 12:30N 51°22' E 002°54'611.2
2018-Apr-17 12:00N 51°21' E 002°45'4 7.7
2018-Apr-17 11:30N 51°21' E 002°39'3 4.9
2018-Apr-17 10:57N 51°20' E 002°35'0 0.1
2018-Apr-17 10:30N 51°20' E 002°35'0 0.1
2018-Apr-17 10:00N 51°20' E 002°35'0 0.0
2018-Apr-17 09:30N 51°20' E 002°35'0 0.0
2018-Apr-17 08:57N 51°20' E 002°35'0 0.0
2018-Apr-17 08:30N 51°20' E 002°35'0 0.0
2018-Apr-17 08:00N 51°20' E 002°35'0 0.0
2018-Apr-17 07:30N 51°20' E 002°35'0 0.0
2018-Apr-17 06:57N 51°20' E 002°35'0 0.1
2018-Apr-17 06:30N 51°20' E 002°35'0 0.1
2018-Apr-17 06:00N 51°20' E 002°35'0 0.2
2018-Apr-17 05:28N 51°20' E 002°35'2 3.3
2018-Apr-17 05:00N 51°21' E 002°34'4 7.6
2018-Apr-17 04:31N 51°21' E 002°27'4 7.5
2018-Apr-17 04:01N 51°19' E 002°22'3 6.1
2018-Apr-17 03:30N 51°18' E 002°18'3 6.3
2018-Apr-17 03:00N 51°16' E 002°14'3 6.5
2018-Apr-17 02:31N 51°15' E 002°09'3 6.9
2018-Apr-17 02:00N 51°13' E 002°04'4 7.1
2018-Apr-17 01:30N 51°11' E 001°59'4 7.4
2018-Apr-17 01:01N 51°09' E 001°54'4 7.7
2018-Apr-17 00:30N 51°07' E 001°49'5 9.5
2018-Apr-17 00:01N 51°03' E 001°45'3 6.7
2018-Apr-16 23:30N 51°02' E 001°50'3 6.6
2018-Apr-16 23:01N 51°02' E 001°55'5 9.5
2018-Apr-16 22:30N 51°03' E 002°03'510.2
2018-Apr-16 22:01N 51°03' E 002°10'611.0
2018-Apr-16 21:29N 51°04' E 002°20'1 1.5
2018-Apr-16 20:57N 51°03' E 002°20'0 0.0
2018-Apr-16 20:30N 51°03' E 002°20'2 3.4
2018-Apr-16 20:01N 51°03' E 002°18'1 1.7
2018-Apr-16 19:31N 51°03' E 002°17'0 0.0
2018-Apr-16 19:00N 51°03' E 002°17'0 0.0
2018-Apr-16 18:30N 51°03' E 002°17'0 0.0
2018-Apr-16 17:39N 51°03' E 002°17'0 0.0
2018-Apr-16 17:27N 51°03' E 002°17'0 0.0
2018-Apr-16 17:00N 51°03' E 002°17'0 0.0
2018-Apr-16 16:27N 51°03' E 002°17'0 0.0
2018-Apr-16 16:00N 51°03' E 002°17'0 0.0
2018-Apr-16 15:30N 51°03' E 002°17'0 0.0
2018-Apr-16 15:00N 51°03' E 002°17'0 0.0
2018-Apr-16 14:30N 51°03' E 002°17'0 0.0
2018-Apr-16 14:00N 51°03' E 002°17'0 0.0
2018-Apr-16 13:27N 51°03' E 002°17'0 0.0
2018-Apr-16 13:00N 51°03' E 002°17'0 0.0
2018-Apr-16 12:30N 51°03' E 002°17'0 0.0
2018-Apr-16 11:54N 51°03' E 002°17'0 0.0
2018-Apr-16 11:24N 51°03' E 002°17'0 0.0
2018-Apr-16 10:48N 51°03' E 002°17'0 0.0
2018-Apr-16 10:18N 51°03' E 002°17'0 0.0
2018-Apr-16 09:57N 51°03' E 002°17'0 0.0
2018-Apr-16 09:21N 51°03' E 002°17'0 0.0
2018-Apr-16 09:00N 51°03' E 002°17'0 0.0
2018-Apr-16 08:30N 51°03' E 002°17'0 0.0
2018-Apr-16 08:00N 51°03' E 002°17'0 0.0
2018-Apr-16 07:18N 51°03' E 002°17'0 0.0
2018-Apr-16 06:51N 51°03' E 002°17'0 0.0
2018-Apr-16 06:18N 51°03' E 002°17'0 0.0
2018-Apr-16 06:00N 51°03' E 002°17'0 0.0
2018-Apr-16 05:24N 51°03' E 002°17'0 0.0
2018-Apr-16 05:00N 51°03' E 002°17'0 0.0
2018-Apr-16 04:27N 51°03' E 002°17'0 0.0
2018-Apr-16 04:00N 51°03' E 002°17'0 0.0
2018-Apr-16 02:00N 51°03' E 002°17'0 0.0
2018-Apr-16 01:12N 51°03' E 002°17'0 0.0
2018-Apr-16 00:45N 51°03' E 002°17'0 0.0
2018-Apr-16 00:24N 51°03' E 002°17'0 0.0
2018-Apr-16 00:00N 51°03' E 002°17'0 0.0
2018-Apr-15 22:42N 51°03' E 002°17'0 0.0
2018-Apr-15 22:21N 51°03' E 002°17'0 0.0
2018-Apr-15 22:00N 51°03' E 002°17'0 0.0
2018-Apr-15 21:15N 51°03' E 002°17'0 0.0
2018-Apr-15 20:54N 51°03' E 002°17'0 0.0
2018-Apr-15 20:15N 51°03' E 002°17'0 0.0
2018-Apr-15 19:54N 51°03' E 002°17'0 0.0
2018-Apr-15 19:30N 51°03' E 002°17'0 0.0
2018-Apr-15 18:54N 51°03' E 002°17'0 0.0
2018-Apr-15 18:27N 51°03' E 002°17'0 0.0
2018-Apr-15 17:21N 51°03' E 002°17'0 0.0
2018-Apr-15 17:00N 51°03' E 002°17'0 0.0
2018-Apr-15 16:27N 51°03' E 002°17'0 0.0
2018-Apr-15 16:00N 51°03' E 002°17'0 0.0
2018-Apr-15 15:30N 51°03' E 002°17'0 0.0
2018-Apr-15 15:00N 51°03' E 002°17'0 0.0
2018-Apr-15 13:42N 51°03' E 002°17'0 0.0
2018-Apr-15 13:30N 51°03' E 002°17'0 0.0
2018-Apr-15 13:00N 51°03' E 002°17'0 0.0
2018-Apr-15 11:36N 51°03' E 002°17'0 0.0
2018-Apr-15 11:18N 51°03' E 002°17'0 0.0
2018-Apr-15 11:00N 51°03' E 002°17'0 0.0
2018-Apr-15 10:30N 51°03' E 002°17'0 0.0
2018-Apr-15 09:57N 51°03' E 002°17'0 0.0
2018-Apr-15 09:18N 51°03' E 002°17'0 0.0
2018-Apr-15 09:00N 51°03' E 002°17'0 0.0
2018-Apr-15 08:24N 51°03' E 002°17'0 0.0
2018-Apr-15 07:48N 51°03' E 002°17'0 0.0
2018-Apr-15 07:30N 51°03' E 002°17'0 0.0
2018-Apr-15 06:36N 51°03' E 002°17'0 0.0
2018-Apr-15 06:18N 51°03' E 002°17'0 0.0
2018-Apr-15 05:57N 51°03' E 002°17'0 0.0
2018-Apr-15 05:30N 51°03' E 002°17'0 0.0
2018-Apr-15 05:00N 51°03' E 002°17'0 0.0
2018-Apr-15 04:24N 51°03' E 002°17'0 0.0
2018-Apr-15 03:57N 51°03' E 002°17'0 0.0
2018-Apr-15 01:18N 51°03' E 002°17'0 0.0
2018-Apr-15 00:15N 51°03' E 002°17'0 0.0
2018-Apr-14 23:48N 51°03' E 002°17'0 0.0
2018-Apr-14 23:30N 51°03' E 002°17'0 0.0
2018-Apr-14 21:00N 51°03' E 002°17'0 0.0
2018-Apr-14 19:42N 51°03' E 002°17'0 0.0
2018-Apr-14 19:30N 51°03' E 002°17'0 0.0
2018-Apr-14 18:54N 51°03' E 002°17'0 0.0
2018-Apr-14 18:30N 51°03' E 002°17'0 0.0
2018-Apr-14 17:51N 51°03' E 002°17'0 0.0
2018-Apr-14 17:30N 51°03' E 002°17'0 0.0
2018-Apr-14 17:00N 51°03' E 002°17'0 0.0
2018-Apr-14 16:24N 51°03' E 002°17'0 0.0
2018-Apr-14 16:00N 51°03' E 002°17'0 0.0
2018-Apr-14 15:24N 51°03' E 002°17'0 0.0
2018-Apr-14 14:54N 51°03' E 002°17'0 0.0
2018-Apr-14 14:24N 51°03' E 002°17'0 0.0
2018-Apr-14 13:06N 51°03' E 002°17'0 0.0
2018-Apr-14 12:45N 51°03' E 002°17'0 0.0
2018-Apr-14 12:12N 51°03' E 002°17'0 0.0
2018-Apr-14 11:39N 51°03' E 002°17'0 0.0
2018-Apr-14 11:21N 51°03' E 002°17'0 0.0
2018-Apr-14 11:00N 51°03' E 002°17'0 0.0
2018-Apr-14 10:30N 51°03' E 002°17'0 0.0
2018-Apr-14 09:57N 51°03' E 002°17'0 0.0
2018-Apr-14 09:27N 51°03' E 002°17'0 0.0
2018-Apr-14 08:24N 51°03' E 002°17'0 0.0
2018-Apr-14 07:51N 51°03' E 002°17'0 0.0
2018-Apr-14 07:30N 51°03' E 002°17'0 0.0
2018-Apr-14 07:00N 51°03' E 002°17'0 0.0
2018-Apr-14 06:24N 51°03' E 002°17'0 0.0
2018-Apr-14 06:00N 51°03' E 002°17'0 0.0
2018-Apr-14 05:30N 51°03' E 002°17'0 0.0
2018-Apr-14 04:57N 51°03' E 002°17'0 0.0
2018-Apr-14 04:30N 51°03' E 002°17'0 0.0
2018-Apr-14 04:00N 51°03' E 002°17'0 0.0
2018-Apr-14 03:30N 51°03' E 002°17'0 0.0
2018-Apr-14 03:00N 51°03' E 002°17'0 0.0
2018-Apr-14 02:30N 51°03' E 002°17'0 0.0
2018-Apr-13 23:36N 51°03' E 002°17'0 0.0
2018-Apr-13 23:30N 51°03' E 002°17'0 0.0
2018-Apr-13 23:00N 51°03' E 002°17'0 0.0
2018-Apr-13 21:57N 51°03' E 002°17'0 0.0
2018-Apr-13 21:30N 51°03' E 002°17'0 0.0
2018-Apr-13 21:00N 51°03' E 002°17'0 0.0
2018-Apr-13 20:24N 51°03' E 002°17'0 0.0
2018-Apr-13 19:57N 51°03' E 002°17'0 0.0
2018-Apr-13 19:30N 51°03' E 002°17'0 0.0
2018-Apr-13 19:00N 51°03' E 002°17'0 0.0
2018-Apr-13 18:30N 51°03' E 002°17'0 0.6
2018-Apr-13 18:00N 51°03' E 002°16'2 3.6
2018-Apr-13 17:29N 51°03' E 002°19'1 2.2
2018-Apr-13 17:00N 51°03' E 002°20'1 1.5
2018-Apr-13 16:30N 51°04' E 002°20'510.3
2018-Apr-13 16:00N 51°03' E 002°12'510.6
2018-Apr-13 15:30N 51°03' E 002°04'510.9
2018-Apr-13 15:00N 51°02' E 001°55'3 6.6
2018-Apr-13 14:30N 51°03' E 001°50'2 3.4
2018-Apr-13 14:01N 51°05' E 001°51'0 0.0
2018-Apr-13 12:58N 51°05' E 001°51'0 0.0
2018-Apr-13 12:31N 51°05' E 001°51'0 0.0
2018-Apr-13 11:58N 51°05' E 001°51'0 0.0
2018-Apr-13 11:31N 51°05' E 001°51'0 0.0
2018-Apr-13 10:58N 51°05' E 001°51'0 0.0
2018-Apr-13 10:27N 51°05' E 001°51'0 0.0
2018-Apr-13 09:58N 51°05' E 001°51'1 1.3
2018-Apr-13 09:30N 51°04' E 001°51'3 6.8
2018-Apr-13 09:00N 51°03' E 001°46'3 5.2
2018-Apr-13 08:30N 51°04' E 001°42'2 4.9
2018-Apr-13 08:00N 51°06' E 001°40'2 4.6
2018-Apr-13 07:30N 51°08' E 001°39'3 6.5
2018-Apr-13 07:00N 51°11' E 001°42'4 7.6
2018-Apr-13 06:30N 51°14' E 001°46'5 9.1
2018-Apr-13 06:00N 51°18' E 001°50'713.7
2018-Apr-13 05:30N 51°24' E 001°56'713.2
2018-Apr-13 05:00N 51°29' E 002°02'612.7
2018-Apr-13 04:30N 51°34' E 002°09'612.6
2018-Apr-13 04:00N 51°38' E 002°16'612.2
2018-Apr-13 03:30N 51°43' E 002°22'4010.6
2018-Apr-12 23:42N 52°03' E 003°19'311.5
2018-Apr-12 23:26N 52°03' E 003°24'611.5
2018-Apr-12 22:57N 52°03' E 003°33'511.9
2018-Apr-12 22:30N 52°04' E 003°42'4 7.3
2018-Apr-12 22:00N 52°08' E 003°41'0 0.1
2018-Apr-12 21:15N 52°08' E 003°41'0 0.1
2018-Apr-12 21:00N 52°08' E 003°41'0 0.0
2018-Apr-12 20:30N 52°08' E 003°41'0 0.0
2018-Apr-12 19:57N 52°08' E 003°41'0 0.0
2018-Apr-12 19:27N 52°08' E 003°41'0 0.0
2018-Apr-12 18:54N 52°08' E 003°41'0 0.0
2018-Apr-12 18:30N 52°08' E 003°41'0 0.0
2018-Apr-12 18:00N 52°08' E 003°41'0 0.0
2018-Apr-12 17:30N 52°08' E 003°41'0 0.0
2018-Apr-12 17:00N 52°08' E 003°41'0 0.0
2018-Apr-12 16:30N 52°08' E 003°41'0 0.0
2018-Apr-12 15:57N 52°08' E 003°41'0 0.0
2018-Apr-12 15:30N 52°08' E 003°41'0 0.1
2018-Apr-12 15:00N 52°08' E 003°41'0 0.2
2018-Apr-12 14:21N 52°08' E 003°42'0 0.1
2018-Apr-12 13:57N 52°08' E 003°42'0 0.0
2018-Apr-12 13:27N 52°08' E 003°42'0 0.1
2018-Apr-12 12:54N 52°08' E 003°42'0 0.0
2018-Apr-12 12:30N 52°08' E 003°42'0 0.0
2018-Apr-12 11:51N 52°08' E 003°42'0 0.0
2018-Apr-12 11:24N 52°08' E 003°42'0 0.1
2018-Apr-12 11:00N 52°08' E 003°41'0 0.1
2018-Apr-12 10:27N 52°08' E 003°41'0 0.1
2018-Apr-12 09:45N 52°08' E 003°41'0 0.0
2018-Apr-12 09:21N 52°08' E 003°41'0 0.0
2018-Apr-12 08:51N 52°08' E 003°41'0 0.0
2018-Apr-12 08:27N 52°08' E 003°41'0 0.0
2018-Apr-12 07:57N 52°08' E 003°41'0 0.0
2018-Apr-12 07:27N 52°08' E 003°41'0 0.0
2018-Apr-12 07:00N 52°08' E 003°41'0 0.0
2018-Apr-12 06:30N 52°08' E 003°41'0 0.0
2018-Apr-12 06:00N 52°08' E 003°41'0 0.0
2018-Apr-12 05:15N 52°08' E 003°41'0 0.1
2018-Apr-12 04:54N 52°08' E 003°41'0 0.6
2018-Apr-12 04:30N 52°08' E 003°42'4 8.8
2018-Apr-12 04:00N 52°05' E 003°48'5 9.2
2018-Apr-12 03:30N 52°03' E 003°54'4 8.4
2018-Apr-12 03:00N 52°01' E 004°00'  

Dump ship's entire track history